sensor_id;sensor_type;location;lat;lon;timestamp;P1;durP1;ratioP1;P2;durP2;ratioP2
31848;SDS011;18414;59.352;18.152;2023-06-19T00:01:14;14.27;;;12.88;;
31848;SDS011;18414;59.352;18.152;2023-06-19T00:03:40;14.88;;;13.38;;
31848;SDS011;18414;59.352;18.152;2023-06-19T00:06:05;15.02;;;13.45;;
31848;SDS011;18414;59.352;18.152;2023-06-19T00:08:31;15.50;;;13.90;;
31848;SDS011;18414;59.352;18.152;2023-06-19T00:10:56;14.75;;;13.25;;
31848;SDS011;18414;59.352;18.152;2023-06-19T00:13:22;15.57;;;13.60;;
31848;SDS011;18414;59.352;18.152;2023-06-19T00:15:47;14.45;;;12.98;;
31848;SDS011;18414;59.352;18.152;2023-06-19T00:18:13;14.20;;;12.68;;
31848;SDS011;18414;59.352;18.152;2023-06-19T00:20:38;15.65;;;14.13;;
31848;SDS011;18414;59.352;18.152;2023-06-19T00:23:04;15.23;;;13.63;;
31848;SDS011;18414;59.352;18.152;2023-06-19T00:25:30;15.70;;;14.05;;
31848;SDS011;18414;59.352;18.152;2023-06-19T00:27:55;16.58;;;14.35;;
31848;SDS011;18414;59.352;18.152;2023-06-19T00:30:22;17.13;;;14.55;;
31848;SDS011;18414;59.352;18.152;2023-06-19T00:32:47;16.85;;;15.05;;
31848;SDS011;18414;59.352;18.152;2023-06-19T00:35:15;16.48;;;14.82;;
31848;SDS011;18414;59.352;18.152;2023-06-19T00:37:43;16.95;;;15.18;;
31848;SDS011;18414;59.352;18.152;2023-06-19T00:40:30;17.67;;;15.68;;
31848;SDS011;18414;59.352;18.152;2023-06-19T00:42:56;18.23;;;15.15;;
31848;SDS011;18414;59.352;18.152;2023-06-19T00:45:22;17.63;;;15.82;;
31848;SDS011;18414;59.352;18.152;2023-06-19T00:47:49;17.02;;;15.32;;
31848;SDS011;18414;59.352;18.152;2023-06-19T00:50:15;17.60;;;15.60;;
31848;SDS011;18414;59.352;18.152;2023-06-19T00:52:40;17.85;;;16.05;;
31848;SDS011;18414;59.352;18.152;2023-06-19T00:55:06;17.70;;;15.73;;
31848;SDS011;18414;59.352;18.152;2023-06-19T00:57:32;17.90;;;15.98;;
31848;SDS011;18414;59.352;18.152;2023-06-19T00:59:58;16.77;;;15.05;;
31848;SDS011;18414;59.352;18.152;2023-06-19T01:02:24;17.75;;;15.55;;
31848;SDS011;18414;59.352;18.152;2023-06-19T01:04:52;17.83;;;14.73;;
31848;SDS011;18414;59.352;18.152;2023-06-19T01:07:19;18.50;;;16.20;;
31848;SDS011;18414;59.352;18.152;2023-06-19T01:09:51;17.35;;;15.75;;
31848;SDS011;18414;59.352;18.152;2023-06-19T01:12:22;18.00;;;16.00;;
31848;SDS011;18414;59.352;18.152;2023-06-19T01:14:58;17.20;;;15.48;;
31848;SDS011;18414;59.352;18.152;2023-06-19T01:17:28;18.30;;;16.30;;
31848;SDS011;18414;59.352;18.152;2023-06-19T01:19:55;19.27;;;17.02;;
31848;SDS011;18414;59.352;18.152;2023-06-19T01:22:24;18.80;;;16.85;;
31848;SDS011;18414;59.352;18.152;2023-06-19T01:24:56;19.58;;;17.48;;
31848;SDS011;18414;59.352;18.152;2023-06-19T01:27:22;19.85;;;17.88;;
31848;SDS011;18414;59.352;18.152;2023-06-19T01:29:48;20.40;;;18.30;;
31848;SDS011;18414;59.352;18.152;2023-06-19T01:32:18;19.98;;;18.05;;
31848;SDS011;18414;59.352;18.152;2023-06-19T01:34:50;19.73;;;17.73;;
31848;SDS011;18414;59.352;18.152;2023-06-19T01:37:17;18.92;;;17.02;;
31848;SDS011;18414;59.352;18.152;2023-06-19T01:39:43;18.85;;;16.95;;
31848;SDS011;18414;59.352;18.152;2023-06-19T01:42:10;19.67;;;17.67;;
31848;SDS011;18414;59.352;18.152;2023-06-19T01:44:36;18.08;;;16.17;;
31848;SDS011;18414;59.352;18.152;2023-06-19T01:47:11;18.65;;;16.85;;
31848;SDS011;18414;59.352;18.152;2023-06-19T01:49:38;18.25;;;16.40;;
31848;SDS011;18414;59.352;18.152;2023-06-19T01:52:03;18.52;;;16.45;;
31848;SDS011;18414;59.352;18.152;2023-06-19T01:54:29;19.15;;;17.15;;
31848;SDS011;18414;59.352;18.152;2023-06-19T01:56:55;17.85;;;16.13;;
31848;SDS011;18414;59.352;18.152;2023-06-19T01:59:22;18.63;;;16.63;;
31848;SDS011;18414;59.352;18.152;2023-06-19T02:01:47;17.42;;;15.63;;
31848;SDS011;18414;59.352;18.152;2023-06-19T02:04:13;18.20;;;16.30;;
31848;SDS011;18414;59.352;18.152;2023-06-19T02:06:39;15.18;;;13.77;;
31848;SDS011;18414;59.352;18.152;2023-06-19T02:09:04;15.75;;;14.25;;
31848;SDS011;18414;59.352;18.152;2023-06-19T02:11:29;15.38;;;13.52;;
31848;SDS011;18414;59.352;18.152;2023-06-19T02:13:55;14.48;;;13.07;;
31848;SDS011;18414;59.352;18.152;2023-06-19T02:16:20;14.80;;;12.63;;
31848;SDS011;18414;59.352;18.152;2023-06-19T02:18:46;12.27;;;11.15;;
31848;SDS011;18414;59.352;18.152;2023-06-19T02:21:11;12.95;;;11.70;;
31848;SDS011;18414;59.352;18.152;2023-06-19T02:23:37;13.35;;;12.02;;
31848;SDS011;18414;59.352;18.152;2023-06-19T02:26:03;13.10;;;11.80;;
31848;SDS011;18414;59.352;18.152;2023-06-19T02:28:29;13.30;;;11.88;;
31848;SDS011;18414;59.352;18.152;2023-06-19T02:30:54;9.82;;;8.57;;
31848;SDS011;18414;59.352;18.152;2023-06-19T02:33:19;12.70;;;11.40;;
31848;SDS011;18414;59.352;18.152;2023-06-19T02:35:45;13.85;;;11.52;;
31848;SDS011;18414;59.352;18.152;2023-06-19T02:38:10;9.25;;;8.35;;
31848;SDS011;18414;59.352;18.152;2023-06-19T02:40:37;13.00;;;11.85;;
31848;SDS011;18414;59.352;18.152;2023-06-19T02:43:03;9.88;;;8.98;;
31848;SDS011;18414;59.352;18.152;2023-06-19T02:45:28;14.05;;;12.65;;
31848;SDS011;18414;59.352;18.152;2023-06-19T02:47:54;10.60;;;9.57;;
31848;SDS011;18414;59.352;18.152;2023-06-19T02:50:19;12.55;;;11.32;;
31848;SDS011;18414;59.352;18.152;2023-06-19T02:52:45;13.50;;;12.20;;
31848;SDS011;18414;59.352;18.152;2023-06-19T02:55:10;12.70;;;11.40;;
31848;SDS011;18414;59.352;18.152;2023-06-19T02:57:36;10.63;;;9.63;;
31848;SDS011;18414;59.352;18.152;2023-06-19T03:00:03;12.32;;;10.88;;
31848;SDS011;18414;59.352;18.152;2023-06-19T03:02:31;11.90;;;10.80;;
31848;SDS011;18414;59.352;18.152;2023-06-19T03:04:56;12.90;;;11.70;;
31848;SDS011;18414;59.352;18.152;2023-06-19T03:07:22;11.82;;;10.77;;
31848;SDS011;18414;59.352;18.152;2023-06-19T03:09:53;8.20;;;7.43;;
31848;SDS011;18414;59.352;18.152;2023-06-19T03:12:18;11.63;;;10.43;;
31848;SDS011;18414;59.352;18.152;2023-06-19T03:14:44;11.35;;;10.18;;
31848;SDS011;18414;59.352;18.152;2023-06-19T03:17:09;6.85;;;6.25;;
31848;SDS011;18414;59.352;18.152;2023-06-19T03:19:34;12.07;;;10.90;;
31848;SDS011;18414;59.352;18.152;2023-06-19T03:22:00;11.80;;;10.65;;
31848;SDS011;18414;59.352;18.152;2023-06-19T03:24:25;11.20;;;9.85;;
31848;SDS011;18414;59.352;18.152;2023-06-19T03:26:51;11.27;;;10.10;;
31848;SDS011;18414;59.352;18.152;2023-06-19T03:29:17;12.40;;;9.77;;
31848;SDS011;18414;59.352;18.152;2023-06-19T03:31:42;12.35;;;10.35;;
31848;SDS011;18414;59.352;18.152;2023-06-19T03:34:08;10.02;;;9.02;;
31848;SDS011;18414;59.352;18.152;2023-06-19T03:36:34;11.60;;;10.40;;
31848;SDS011;18414;59.352;18.152;2023-06-19T03:38:59;10.20;;;9.23;;
31848;SDS011;18414;59.352;18.152;2023-06-19T03:41:25;12.57;;;9.18;;
31848;SDS011;18414;59.352;18.152;2023-06-19T03:43:51;11.23;;;10.05;;
31848;SDS011;18414;59.352;18.152;2023-06-19T03:46:16;11.02;;;9.93;;
31848;SDS011;18414;59.352;18.152;2023-06-19T03:48:42;12.80;;;10.85;;
31848;SDS011;18414;59.352;18.152;2023-06-19T03:51:07;12.15;;;10.43;;
31848;SDS011;18414;59.352;18.152;2023-06-19T03:53:33;9.48;;;8.48;;
31848;SDS011;18414;59.352;18.152;2023-06-19T03:55:59;9.90;;;8.50;;
31848;SDS011;18414;59.352;18.152;2023-06-19T03:58:24;7.50;;;6.75;;
31848;SDS011;18414;59.352;18.152;2023-06-19T04:00:50;7.90;;;7.15;;
31848;SDS011;18414;59.352;18.152;2023-06-19T04:03:16;12.55;;;10.45;;
31848;SDS011;18414;59.352;18.152;2023-06-19T04:05:41;10.65;;;9.63;;
31848;SDS011;18414;59.352;18.152;2023-06-19T04:08:07;9.25;;;8.07;;
31848;SDS011;18414;59.352;18.152;2023-06-19T04:10:32;11.27;;;10.07;;
31848;SDS011;18414;59.352;18.152;2023-06-19T04:12:58;13.70;;;11.00;;
31848;SDS011;18414;59.352;18.152;2023-06-19T04:15:23;12.48;;;10.35;;
31848;SDS011;18414;59.352;18.152;2023-06-19T04:17:48;13.45;;;11.30;;
31848;SDS011;18414;59.352;18.152;2023-06-19T04:20:14;9.13;;;8.23;;
31848;SDS011;18414;59.352;18.152;2023-06-19T04:22:42;11.90;;;10.40;;
31848;SDS011;18414;59.352;18.152;2023-06-19T04:25:08;12.40;;;11.18;;
31848;SDS011;18414;59.352;18.152;2023-06-19T04:27:34;11.25;;;10.23;;
31848;SDS011;18414;59.352;18.152;2023-06-19T04:29:59;14.43;;;11.57;;
31848;SDS011;18414;59.352;18.152;2023-06-19T04:32:25;12.65;;;10.32;;
31848;SDS011;18414;59.352;18.152;2023-06-19T04:34:50;9.73;;;8.80;;
31848;SDS011;18414;59.352;18.152;2023-06-19T04:37:16;13.25;;;11.85;;
31848;SDS011;18414;59.352;18.152;2023-06-19T04:39:44;14.30;;;11.10;;
31848;SDS011;18414;59.352;18.152;2023-06-19T04:42:13;12.93;;;11.77;;
31848;SDS011;18414;59.352;18.152;2023-06-19T04:44:44;14.38;;;11.73;;
31848;SDS011;18414;59.352;18.152;2023-06-19T04:47:11;13.23;;;11.45;;
31848;SDS011;18414;59.352;18.152;2023-06-19T04:49:37;13.93;;;12.52;;
31848;SDS011;18414;59.352;18.152;2023-06-19T04:52:02;13.38;;;11.98;;
31848;SDS011;18414;59.352;18.152;2023-06-19T04:54:28;14.95;;;13.32;;
31848;SDS011;18414;59.352;18.152;2023-06-19T04:56:53;16.70;;;13.43;;
31848;SDS011;18414;59.352;18.152;2023-06-19T04:59:19;16.55;;;12.82;;
31848;SDS011;18414;59.352;18.152;2023-06-19T05:01:44;11.38;;;10.27;;
31848;SDS011;18414;59.352;18.152;2023-06-19T05:04:10;17.10;;;12.75;;
31848;SDS011;18414;59.352;18.152;2023-06-19T05:06:38;14.93;;;13.18;;
31848;SDS011;18414;59.352;18.152;2023-06-19T05:09:03;16.83;;;14.85;;
31848;SDS011;18414;59.352;18.152;2023-06-19T05:11:29;15.20;;;13.63;;
31848;SDS011;18414;59.352;18.152;2023-06-19T05:13:54;15.55;;;13.45;;
31848;SDS011;18414;59.352;18.152;2023-06-19T05:16:19;17.98;;;14.52;;
31848;SDS011;18414;59.352;18.152;2023-06-19T05:18:45;16.90;;;14.05;;
31848;SDS011;18414;59.352;18.152;2023-06-19T05:21:11;14.32;;;11.95;;
31848;SDS011;18414;59.352;18.152;2023-06-19T05:23:37;17.45;;;15.25;;
31848;SDS011;18414;59.352;18.152;2023-06-19T05:26:03;15.30;;;13.75;;
31848;SDS011;18414;59.352;18.152;2023-06-19T05:28:29;15.95;;;14.25;;
31848;SDS011;18414;59.352;18.152;2023-06-19T05:30:54;15.75;;;13.85;;
31848;SDS011;18414;59.352;18.152;2023-06-19T05:33:20;18.30;;;14.52;;
31848;SDS011;18414;59.352;18.152;2023-06-19T05:35:45;15.40;;;13.82;;
31848;SDS011;18414;59.352;18.152;2023-06-19T05:38:17;16.52;;;14.13;;
31848;SDS011;18414;59.352;18.152;2023-06-19T05:40:42;12.80;;;11.60;;
31848;SDS011;18414;59.352;18.152;2023-06-19T05:43:07;15.98;;;13.80;;
31848;SDS011;18414;59.352;18.152;2023-06-19T05:45:33;15.50;;;13.90;;
31848;SDS011;18414;59.352;18.152;2023-06-19T05:47:58;14.82;;;13.40;;
31848;SDS011;18414;59.352;18.152;2023-06-19T05:50:23;14.85;;;13.32;;
31848;SDS011;18414;59.352;18.152;2023-06-19T05:52:49;15.23;;;13.82;;
31848;SDS011;18414;59.352;18.152;2023-06-19T05:55:15;16.15;;;14.55;;
31848;SDS011;18414;59.352;18.152;2023-06-19T05:57:40;19.80;;;13.63;;
31848;SDS011;18414;59.352;18.152;2023-06-19T06:00:05;15.20;;;12.68;;
31848;SDS011;18414;59.352;18.152;2023-06-19T06:02:35;16.77;;;14.20;;
31848;SDS011;18414;59.352;18.152;2023-06-19T06:05:00;20.27;;;15.25;;
31848;SDS011;18414;59.352;18.152;2023-06-19T06:07:26;15.90;;;14.13;;
31848;SDS011;18414;59.352;18.152;2023-06-19T06:09:53;15.02;;;13.52;;
31848;SDS011;18414;59.352;18.152;2023-06-19T06:12:20;15.65;;;14.10;;
31848;SDS011;18414;59.352;18.152;2023-06-19T06:14:45;17.08;;;15.45;;
31848;SDS011;18414;59.352;18.152;2023-06-19T06:17:11;17.15;;;15.30;;
31848;SDS011;18414;59.352;18.152;2023-06-19T06:19:36;16.33;;;14.63;;
31848;SDS011;18414;59.352;18.152;2023-06-19T06:22:02;16.20;;;14.68;;
31848;SDS011;18414;59.352;18.152;2023-06-19T06:24:27;17.30;;;14.50;;
31848;SDS011;18414;59.352;18.152;2023-06-19T06:26:53;15.73;;;14.10;;
31848;SDS011;18414;59.352;18.152;2023-06-19T06:29:18;16.35;;;14.00;;
31848;SDS011;18414;59.352;18.152;2023-06-19T06:31:45;19.23;;;14.23;;
31848;SDS011;18414;59.352;18.152;2023-06-19T06:34:11;16.23;;;14.57;;
31848;SDS011;18414;59.352;18.152;2023-06-19T06:36:37;16.13;;;14.50;;
31848;SDS011;18414;59.352;18.152;2023-06-19T06:39:03;16.02;;;14.38;;
31848;SDS011;18414;59.352;18.152;2023-06-19T06:41:28;15.77;;;14.07;;
31848;SDS011;18414;59.352;18.152;2023-06-19T06:43:54;15.13;;;13.65;;
31848;SDS011;18414;59.352;18.152;2023-06-19T06:46:20;14.68;;;13.18;;
31848;SDS011;18414;59.352;18.152;2023-06-19T06:48:46;13.77;;;12.38;;
31848;SDS011;18414;59.352;18.152;2023-06-19T06:51:12;15.63;;;13.57;;
31848;SDS011;18414;59.352;18.152;2023-06-19T06:53:38;15.20;;;12.75;;
31848;SDS011;18414;59.352;18.152;2023-06-19T06:56:03;14.32;;;11.68;;
31848;SDS011;18414;59.352;18.152;2023-06-19T06:58:29;13.48;;;12.07;;
31848;SDS011;18414;59.352;18.152;2023-06-19T07:00:55;12.75;;;11.55;;
31848;SDS011;18414;59.352;18.152;2023-06-19T07:03:20;12.93;;;11.32;;
31848;SDS011;18414;59.352;18.152;2023-06-19T07:05:47;11.65;;;10.55;;
31848;SDS011;18414;59.352;18.152;2023-06-19T07:08:12;11.93;;;10.60;;
31848;SDS011;18414;59.352;18.152;2023-06-19T07:10:38;10.75;;;9.65;;
31848;SDS011;18414;59.352;18.152;2023-06-19T07:13:03;11.25;;;10.15;;
31848;SDS011;18414;59.352;18.152;2023-06-19T07:15:28;13.52;;;10.75;;
31848;SDS011;18414;59.352;18.152;2023-06-19T07:17:54;11.77;;;10.57;;
31848;SDS011;18414;59.352;18.152;2023-06-19T07:20:19;12.27;;;10.98;;
31848;SDS011;18414;59.352;18.152;2023-06-19T07:22:45;10.95;;;9.85;;
31848;SDS011;18414;59.352;18.152;2023-06-19T07:25:11;11.43;;;9.95;;
31848;SDS011;18414;59.352;18.152;2023-06-19T07:27:41;11.07;;;9.98;;
31848;SDS011;18414;59.352;18.152;2023-06-19T07:30:07;10.38;;;9.38;;
31848;SDS011;18414;59.352;18.152;2023-06-19T07:32:32;11.13;;;9.23;;
31848;SDS011;18414;59.352;18.152;2023-06-19T07:34:58;10.68;;;9.65;;
31848;SDS011;18414;59.352;18.152;2023-06-19T07:37:23;10.50;;;9.40;;
31848;SDS011;18414;59.352;18.152;2023-06-19T07:39:49;10.27;;;9.27;;
31848;SDS011;18414;59.352;18.152;2023-06-19T07:42:16;13.73;;;9.57;;
31848;SDS011;18414;59.352;18.152;2023-06-19T07:44:43;10.70;;;9.55;;
31848;SDS011;18414;59.352;18.152;2023-06-19T07:47:09;10.80;;;9.00;;
31848;SDS011;18414;59.352;18.152;2023-06-19T07:49:34;9.70;;;8.80;;
31848;SDS011;18414;59.352;18.152;2023-06-19T07:52:00;10.75;;;9.40;;
31848;SDS011;18414;59.352;18.152;2023-06-19T07:54:26;9.40;;;8.38;;
31848;SDS011;18414;59.352;18.152;2023-06-19T07:56:52;11.32;;;9.85;;
31848;SDS011;18414;59.352;18.152;2023-06-19T07:59:17;9.35;;;8.45;;
31848;SDS011;18414;59.352;18.152;2023-06-19T08:01:43;9.88;;;8.80;;
31848;SDS011;18414;59.352;18.152;2023-06-19T08:04:09;12.13;;;8.75;;
31848;SDS011;18414;59.352;18.152;2023-06-19T08:06:34;9.40;;;8.38;;
31848;SDS011;18414;59.352;18.152;2023-06-19T08:08:59;11.50;;;9.40;;
31848;SDS011;18414;59.352;18.152;2023-06-19T08:11:25;9.15;;;8.02;;
31848;SDS011;18414;59.352;18.152;2023-06-19T08:13:50;11.43;;;8.77;;
31848;SDS011;18414;59.352;18.152;2023-06-19T08:16:16;9.77;;;8.77;;
31848;SDS011;18414;59.352;18.152;2023-06-19T08:18:42;11.35;;;9.15;;
31848;SDS011;18414;59.352;18.152;2023-06-19T08:21:09;9.05;;;8.15;;
31848;SDS011;18414;59.352;18.152;2023-06-19T08:23:34;10.27;;;8.18;;
31848;SDS011;18414;59.352;18.152;2023-06-19T08:26:00;9.48;;;8.02;;
31848;SDS011;18414;59.352;18.152;2023-06-19T08:28:27;10.88;;;8.30;;
31848;SDS011;18414;59.352;18.152;2023-06-19T08:30:52;10.35;;;8.23;;
31848;SDS011;18414;59.352;18.152;2023-06-19T08:33:17;8.38;;;7.55;;
31848;SDS011;18414;59.352;18.152;2023-06-19T08:35:43;8.93;;;7.55;;
31848;SDS011;18414;59.352;18.152;2023-06-19T08:38:09;10.43;;;7.80;;
31848;SDS011;18414;59.352;18.152;2023-06-19T08:40:34;11.35;;;8.20;;
31848;SDS011;18414;59.352;18.152;2023-06-19T08:43:00;10.02;;;8.52;;
31848;SDS011;18414;59.352;18.152;2023-06-19T08:45:28;9.70;;;8.02;;
31848;SDS011;18414;59.352;18.152;2023-06-19T08:47:57;10.45;;;7.97;;
31848;SDS011;18414;59.352;18.152;2023-06-19T08:50:24;10.63;;;8.23;;
31848;SDS011;18414;59.352;18.152;2023-06-19T08:52:50;12.05;;;8.00;;
31848;SDS011;18414;59.352;18.152;2023-06-19T08:55:15;9.32;;;8.05;;
31848;SDS011;18414;59.352;18.152;2023-06-19T08:57:41;11.50;;;8.30;;
31848;SDS011;18414;59.352;18.152;2023-06-19T09:00:06;10.77;;;8.15;;
31848;SDS011;18414;59.352;18.152;2023-06-19T09:02:38;12.00;;;8.35;;
31848;SDS011;18414;59.352;18.152;2023-06-19T09:05:11;8.90;;;8.00;;
31848;SDS011;18414;59.352;18.152;2023-06-19T09:07:42;11.43;;;7.88;;
31848;SDS011;18414;59.352;18.152;2023-06-19T09:10:13;10.65;;;8.50;;
31848;SDS011;18414;59.352;18.152;2023-06-19T09:12:41;10.02;;;8.40;;
31848;SDS011;18414;59.352;18.152;2023-06-19T09:15:12;11.32;;;8.07;;
31848;SDS011;18414;59.352;18.152;2023-06-19T09:17:38;11.00;;;8.20;;
31848;SDS011;18414;59.352;18.152;2023-06-19T09:20:04;12.60;;;7.55;;
31848;SDS011;18414;59.352;18.152;2023-06-19T09:22:37;10.43;;;7.85;;
31848;SDS011;18414;59.352;18.152;2023-06-19T09:25:06;10.05;;;7.20;;
31848;SDS011;18414;59.352;18.152;2023-06-19T09:27:34;10.73;;;7.82;;
31848;SDS011;18414;59.352;18.152;2023-06-19T09:30:00;13.43;;;7.50;;
31848;SDS011;18414;59.352;18.152;2023-06-19T09:32:26;11.07;;;7.75;;
31848;SDS011;18414;59.352;18.152;2023-06-19T09:34:56;10.73;;;7.22;;
31848;SDS011;18414;59.352;18.152;2023-06-19T09:37:26;15.57;;;8.00;;
31848;SDS011;18414;59.352;18.152;2023-06-19T09:39:59;9.00;;;7.43;;
31848;SDS011;18414;59.352;18.152;2023-06-19T09:42:27;10.80;;;8.10;;
31848;SDS011;18414;59.352;18.152;2023-06-19T09:44:58;11.10;;;8.35;;
31848;SDS011;18414;59.352;18.152;2023-06-19T09:47:37;10.20;;;7.72;;
31848;SDS011;18414;59.352;18.152;2023-06-19T09:50:04;10.10;;;7.55;;
31848;SDS011;18414;59.352;18.152;2023-06-19T09:52:31;8.85;;;7.50;;
31848;SDS011;18414;59.352;18.152;2023-06-19T09:54:57;10.93;;;7.93;;
31848;SDS011;18414;59.352;18.152;2023-06-19T09:57:22;13.70;;;8.32;;
31848;SDS011;18414;59.352;18.152;2023-06-19T09:59:50;9.85;;;7.30;;
31848;SDS011;18414;59.352;18.152;2023-06-19T10:02:21;9.35;;;6.70;;
31848;SDS011;18414;59.352;18.152;2023-06-19T10:04:51;9.38;;;7.20;;
31848;SDS011;18414;59.352;18.152;2023-06-19T10:07:21;10.45;;;6.82;;
31848;SDS011;18414;59.352;18.152;2023-06-19T10:12:53;10.27;;;6.88;;
31848;SDS011;18414;59.352;18.152;2023-06-19T10:17:54;9.10;;;6.85;;
31848;SDS011;18414;59.352;18.152;2023-06-19T10:20:29;14.20;;;6.80;;
31848;SDS011;18414;59.352;18.152;2023-06-19T10:23:05;9.98;;;6.60;;
31848;SDS011;18414;59.352;18.152;2023-06-19T10:25:42;11.60;;;6.90;;
31848;SDS011;18414;59.352;18.152;2023-06-19T10:28:16;11.18;;;6.70;;
31848;SDS011;18414;59.352;18.152;2023-06-19T10:30:51;9.45;;;7.22;;
31848;SDS011;18414;59.352;18.152;2023-06-19T10:33:26;12.18;;;6.53;;
31848;SDS011;18414;59.352;18.152;2023-06-19T10:35:53;10.77;;;6.85;;
31848;SDS011;18414;59.352;18.152;2023-06-19T10:38:20;10.25;;;6.82;;
31848;SDS011;18414;59.352;18.152;2023-06-19T10:40:47;9.73;;;7.30;;
31848;SDS011;18414;59.352;18.152;2023-06-19T10:43:13;13.02;;;6.60;;
31848;SDS011;18414;59.352;18.152;2023-06-19T10:45:44;11.57;;;6.90;;
31848;SDS011;18414;59.352;18.152;2023-06-19T10:48:10;6.97;;;6.25;;
31848;SDS011;18414;59.352;18.152;2023-06-19T10:50:41;11.73;;;7.35;;
31848;SDS011;18414;59.352;18.152;2023-06-19T10:53:08;11.77;;;7.47;;
31848;SDS011;18414;59.352;18.152;2023-06-19T10:55:34;9.40;;;6.97;;
31848;SDS011;18414;59.352;18.152;2023-06-19T10:57:59;11.07;;;7.45;;
31848;SDS011;18414;59.352;18.152;2023-06-19T11:00:28;12.02;;;7.65;;
31848;SDS011;18414;59.352;18.152;2023-06-19T11:02:55;11.60;;;7.60;;
31848;SDS011;18414;59.352;18.152;2023-06-19T11:05:22;10.48;;;7.50;;
31848;SDS011;18414;59.352;18.152;2023-06-19T11:10:18;13.82;;;8.85;;
31848;SDS011;18414;59.352;18.152;2023-06-19T11:12:44;17.60;;;9.18;;
31848;SDS011;18414;59.352;18.152;2023-06-19T11:15:10;14.68;;;8.60;;
31848;SDS011;18414;59.352;18.152;2023-06-19T11:17:36;13.30;;;9.70;;
31848;SDS011;18414;59.352;18.152;2023-06-19T11:20:01;12.73;;;8.52;;
31848;SDS011;18414;59.352;18.152;2023-06-19T11:22:35;13.20;;;9.02;;
31848;SDS011;18414;59.352;18.152;2023-06-19T11:25:02;13.23;;;9.45;;
31848;SDS011;18414;59.352;18.152;2023-06-19T11:27:30;13.93;;;9.20;;
31848;SDS011;18414;59.352;18.152;2023-06-19T11:29:56;14.50;;;10.15;;
31848;SDS011;18414;59.352;18.152;2023-06-19T11:32:23;12.90;;;9.18;;
31848;SDS011;18414;59.352;18.152;2023-06-19T11:34:50;19.83;;;9.88;;
31848;SDS011;18414;59.352;18.152;2023-06-19T11:37:16;14.93;;;9.63;;
31848;SDS011;18414;59.352;18.152;2023-06-19T11:39:49;17.55;;;10.10;;
31848;SDS011;18414;59.352;18.152;2023-06-19T11:42:16;14.38;;;9.90;;
31848;SDS011;18414;59.352;18.152;2023-06-19T11:45:01;13.25;;;9.95;;
31848;SDS011;18414;59.352;18.152;2023-06-19T11:47:30;18.02;;;10.57;;
31848;SDS011;18414;59.352;18.152;2023-06-19T11:49:56;12.65;;;9.82;;
31848;SDS011;18414;59.352;18.152;2023-06-19T11:52:22;16.73;;;10.85;;
31848;SDS011;18414;59.352;18.152;2023-06-19T11:54:47;11.27;;;9.73;;
31848;SDS011;18414;59.352;18.152;2023-06-19T11:57:16;14.32;;;10.35;;
31848;SDS011;18414;59.352;18.152;2023-06-19T11:59:43;13.75;;;9.85;;
31848;SDS011;18414;59.352;18.152;2023-06-19T12:02:08;11.35;;;9.60;;
31848;SDS011;18414;59.352;18.152;2023-06-19T12:04:34;10.43;;;9.25;;
31848;SDS011;18414;59.352;18.152;2023-06-19T12:07:00;10.82;;;9.57;;
31848;SDS011;18414;59.352;18.152;2023-06-19T12:09:26;12.88;;;10.60;;
31848;SDS011;18414;59.352;18.152;2023-06-19T12:11:51;14.70;;;9.63;;
31848;SDS011;18414;59.352;18.152;2023-06-19T12:14:16;10.57;;;9.05;;
31848;SDS011;18414;59.352;18.152;2023-06-19T12:16:43;10.32;;;9.32;;
31848;SDS011;18414;59.352;18.152;2023-06-19T12:19:10;12.48;;;9.65;;
31848;SDS011;18414;59.352;18.152;2023-06-19T12:21:36;13.15;;;10.13;;
31848;SDS011;18414;59.352;18.152;2023-06-19T12:24:02;11.93;;;10.73;;
31848;SDS011;18414;59.352;18.152;2023-06-19T12:26:30;11.70;;;9.68;;
31848;SDS011;18414;59.352;18.152;2023-06-19T12:29:00;12.15;;;10.50;;
31848;SDS011;18414;59.352;18.152;2023-06-19T12:31:26;14.68;;;10.75;;
31848;SDS011;18414;59.352;18.152;2023-06-19T12:33:51;11.88;;;9.82;;
31848;SDS011;18414;59.352;18.152;2023-06-19T12:36:16;12.00;;;10.60;;
31848;SDS011;18414;59.352;18.152;2023-06-19T12:38:42;11.75;;;10.65;;
31848;SDS011;18414;59.352;18.152;2023-06-19T12:41:08;13.15;;;10.98;;
31848;SDS011;18414;59.352;18.152;2023-06-19T12:43:34;15.85;;;11.27;;
31848;SDS011;18414;59.352;18.152;2023-06-19T12:46:00;12.35;;;10.52;;
31848;SDS011;18414;59.352;18.152;2023-06-19T12:48:26;14.60;;;11.05;;
31848;SDS011;18414;59.352;18.152;2023-06-19T12:50:52;12.40;;;11.07;;
31848;SDS011;18414;59.352;18.152;2023-06-19T12:53:17;12.10;;;10.23;;
31848;SDS011;18414;59.352;18.152;2023-06-19T12:55:43;14.50;;;10.88;;
31848;SDS011;18414;59.352;18.152;2023-06-19T12:58:09;11.85;;;10.63;;
31848;SDS011;18414;59.352;18.152;2023-06-19T13:00:34;13.68;;;11.27;;
31848;SDS011;18414;59.352;18.152;2023-06-19T13:03:00;13.15;;;10.98;;
31848;SDS011;18414;59.352;18.152;2023-06-19T13:05:25;13.23;;;11.82;;
31848;SDS011;18414;59.352;18.152;2023-06-19T13:07:50;13.50;;;10.70;;
31848;SDS011;18414;59.352;18.152;2023-06-19T13:10:16;12.45;;;10.77;;
31848;SDS011;18414;59.352;18.152;2023-06-19T13:12:41;16.20;;;12.05;;
31848;SDS011;18414;59.352;18.152;2023-06-19T13:15:06;13.18;;;10.82;;
31848;SDS011;18414;59.352;18.152;2023-06-19T13:17:32;12.85;;;11.55;;
31848;SDS011;18414;59.352;18.152;2023-06-19T13:19:57;12.60;;;11.10;;
31848;SDS011;18414;59.352;18.152;2023-06-19T13:22:24;12.15;;;10.82;;
31848;SDS011;18414;59.352;18.152;2023-06-19T13:24:50;13.02;;;10.60;;
31848;SDS011;18414;59.352;18.152;2023-06-19T13:27:16;13.98;;;12.57;;
31848;SDS011;18414;59.352;18.152;2023-06-19T13:29:41;16.20;;;12.70;;
31848;SDS011;18414;59.352;18.152;2023-06-19T13:32:07;13.73;;;11.90;;
31848;SDS011;18414;59.352;18.152;2023-06-19T13:34:32;12.75;;;11.43;;
31848;SDS011;18414;59.352;18.152;2023-06-19T13:36:58;14.32;;;11.57;;
31848;SDS011;18414;59.352;18.152;2023-06-19T13:39:23;12.90;;;10.73;;
31848;SDS011;18414;59.352;18.152;2023-06-19T13:41:48;15.20;;;11.40;;
31848;SDS011;18414;59.352;18.152;2023-06-19T13:44:14;12.98;;;11.60;;
31848;SDS011;18414;59.352;18.152;2023-06-19T13:46:39;12.30;;;10.93;;
31848;SDS011;18414;59.352;18.152;2023-06-19T13:49:04;13.98;;;11.50;;
31848;SDS011;18414;59.352;18.152;2023-06-19T13:51:31;13.50;;;11.57;;
31848;SDS011;18414;59.352;18.152;2023-06-19T13:53:57;12.15;;;10.90;;
31848;SDS011;18414;59.352;18.152;2023-06-19T13:56:23;15.15;;;10.60;;
31848;SDS011;18414;59.352;18.152;2023-06-19T13:58:48;14.35;;;9.27;;
31848;SDS011;18414;59.352;18.152;2023-06-19T14:01:14;12.20;;;10.73;;
31848;SDS011;18414;59.352;18.152;2023-06-19T14:03:40;12.38;;;11.10;;
31848;SDS011;18414;59.352;18.152;2023-06-19T14:06:06;17.00;;;10.98;;
31848;SDS011;18414;59.352;18.152;2023-06-19T14:08:32;11.80;;;10.60;;
31848;SDS011;18414;59.352;18.152;2023-06-19T14:10:58;13.32;;;10.93;;
31848;SDS011;18414;59.352;18.152;2023-06-19T14:13:23;12.68;;;11.32;;
31848;SDS011;18414;59.352;18.152;2023-06-19T14:15:49;11.63;;;10.52;;
31848;SDS011;18414;59.352;18.152;2023-06-19T14:18:14;12.52;;;10.98;;
31848;SDS011;18414;59.352;18.152;2023-06-19T14:20:40;10.38;;;9.35;;